Time;durP1;ratioP1;P1;durP2;ratioP2;P2;SDS_P1;SDS_P2;PMS_P1;PMS_P2;Temp;Humidity;BMP_temperature;BMP_pressure;BME280_temperature;BME280_humidity;BME280_pressure;Samples;Min_cycle;Max_cycle;Signal;HPM_P1;HPM_P2
2024/03/01 00:00:22;;;;;;;12.60;8.98;;;;;5.10;97479.00;;;;4843886;29;20133;-65
2024/03/01 00:02:49;;;;;;;14.52;9.25;;;;;5.10;97478.00;;;;4842527;29;20153;-66
2024/03/01 00:05:16;;;;;;;13.90;9.40;;;;;5.10;97482.00;;;;4842745;29;20061;-66
2024/03/01 00:07:43;;;;;;;12.65;9.05;;;;;5.10;97469.00;;;;4844165;29;20162;-66
2024/03/01 00:10:10;;;;;;;15.13;9.82;;;;;5.20;97477.00;;;;4843610;29;20050;-66
2024/03/01 00:12:37;;;;;;;13.88;9.18;;;;;5.20;97481.00;;;;4843722;29;20046;-66
2024/03/01 00:15:04;;;;;;;11.93;8.63;;;;;5.10;97469.00;;;;4844323;29;20045;-66
2024/03/01 00:17:30;;;;;;;16.08;9.90;;;;;5.10;97468.00;;;;4842306;29;20088;-66
2024/03/01 00:19:57;;;;;;;11.95;8.63;;;;;5.10;97473.00;;;;4843384;29;20050;-66
2024/03/01 00:22:26;;;;;;;14.27;9.45;;;;;5.00;97469.00;;;;4842069;29;20141;-66
2024/03/01 00:24:54;;;;;;;12.70;8.80;;;;;4.90;97478.00;;;;4842535;29;20419;-66
2024/03/01 00:27:20;;;;;;;15.02;9.63;;;;;4.90;97466.00;;;;4843126;29;20052;-66
2024/03/01 00:29:47;;;;;;;14.05;9.35;;;;;4.90;97467.00;;;;4843099;29;20058;-66
2024/03/01 00:32:13;;;;;;;12.27;9.20;;;;;4.80;97465.00;;;;4857649;29;20049;-66
2024/03/01 00:34:40;;;;;;;14.75;9.27;;;;;4.80;97463.00;;;;4843148;29;20048;-66
2024/03/01 00:37:07;;;;;;;12.48;9.27;;;;;4.70;97469.00;;;;4843250;29;20042;-66
2024/03/01 00:39:33;;;;;;;13.25;9.32;;;;;4.80;97479.00;;;;4843064;29;20042;-66
2024/03/01 00:42:00;;;;;;;12.90;8.25;;;;;4.80;97469.00;;;;4841755;29;20094;-66
2024/03/01 00:44:26;;;;;;;13.50;8.98;;;;;4.60;97465.00;;;;4842842;29;20125;-66
2024/03/01 00:46:53;;;;;;;13.63;9.10;;;;;4.60;97471.00;;;;4842800;29;20102;-66
2024/03/01 00:49:19;;;;;;;12.35;8.38;;;;;4.60;97468.00;;;;4841605;29;20050;-66
2024/03/01 00:51:46;;;;;;;13.07;8.85;;;;;4.50;97467.00;;;;4842610;29;20092;-66
2024/03/01 00:54:13;;;;;;;13.50;9.77;;;;;4.40;97467.00;;;;4842811;29;20065;-66
2024/03/01 00:56:39;;;;;;;13.60;9.18;;;;;4.50;97467.00;;;;4857276;29;20095;-66
2024/03/01 00:59:06;;;;;;;13.00;8.73;;;;;4.60;97468.00;;;;4842858;29;20078;-66
2024/03/01 01:01:33;;;;;;;14.40;10.30;;;;;4.50;97469.00;;;;4841748;29;20114;-66
2024/03/01 01:04:00;;;;;;;14.20;9.13;;;;;4.60;97460.00;;;;4841606;29;20085;-66
2024/03/01 01:06:26;;;;;;;17.02;10.10;;;;;4.50;97461.00;;;;4842822;29;20046;-66
2024/03/01 01:08:53;;;;;;;13.45;9.70;;;;;4.50;97458.00;;;;4843311;29;20050;-66
2024/03/01 01:11:19;;;;;;;15.40;9.68;;;;;4.60;97453.00;;;;4842653;29;20069;-66
2024/03/01 01:13:46;;;;;;;17.13;10.18;;;;;4.60;97456.00;;;;4842674;29;20128;-66
2024/03/01 01:16:13;;;;;;;14.23;9.82;;;;;4.70;97451.00;;;;4842581;29;20072;-66
2024/03/01 01:18:42;;;;;;;13.27;8.63;;;;;4.70;97450.00;;;;4842930;29;20505;-66
2024/03/01 01:21:09;;;;;;;16.60;10.35;;;;;4.70;97453.00;;;;4842557;29;20050;-66
2024/03/01 01:23:38;;;;;;;15.65;9.65;;;;;4.60;97442.00;;;;4841853;29;20081;-66
2024/03/01 01:26:05;;;;;;;13.95;9.93;;;;;4.50;97441.00;;;;4841312;29;20058;-66
2024/03/01 01:28:32;;;;;;;13.45;8.95;;;;;4.40;97443.00;;;;4844924;29;20468;-66
2024/03/01 01:30:58;;;;;;;15.20;9.75;;;;;4.40;97441.00;;;;4846709;29;20073;-66
2024/03/01 01:33:25;;;;;;;16.27;10.00;;;;;4.40;97443.00;;;;4845345;29;20121;-66
2024/03/01 01:35:51;;;;;;;15.80;9.90;;;;;4.40;97443.00;;;;4848363;29;20045;-65
2024/03/01 01:38:18;;;;;;;15.73;9.65;;;;;4.40;97433.00;;;;4847766;29;20061;-65
2024/03/01 01:40:45;;;;;;;15.55;10.48;;;;;4.30;97437.00;;;;4847337;29;20579;-65
2024/03/01 01:43:12;;;;;;;15.60;9.85;;;;;4.30;97438.00;;;;4846329;29;20054;-66
2024/03/01 01:45:38;;;;;;;14.32;9.93;;;;;4.40;97440.00;;;;4846317;29;20106;-66
2024/03/01 01:48:05;;;;;;;12.10;9.15;;;;;4.40;97434.00;;;;4860171;29;20054;-66
2024/03/01 01:50:32;;;;;;;14.85;9.77;;;;;4.40;97419.00;;;;4845180;29;20094;-66
2024/03/01 01:53:01;;;;;;;16.25;10.88;;;;;4.30;97420.00;;;;4844639;29;20140;-65
2024/03/01 01:55:43;;;;;;;15.52;10.00;;;;;4.30;97421.00;;;;4845258;29;20414;-65
2024/03/01 01:58:10;;;;;;;16.20;10.23;;;;;4.40;97421.00;;;;4829557;29;20136;-65
2024/03/01 02:00:38;;;;;;;15.57;10.35;;;;;4.50;97423.00;;;;4845565;29;20076;-65
2024/03/01 02:03:05;;;;;;;14.77;9.85;;;;;4.60;97432.00;;;;4845620;29;20515;-65
2024/03/01 02:05:32;;;;;;;15.90;10.43;;;;;4.70;97435.00;;;;4846029;29;20483;-65
2024/03/01 02:08:03;;;;;;;15.88;10.07;;;;;4.90;97457.00;;;;4844318;29;20042;-66
2024/03/01 02:10:29;;;;;;;17.17;10.35;;;;;5.00;97460.00;;;;4845443;29;20050;-66
2024/03/01 02:12:58;;;;;;;15.27;10.75;;;;;5.00;97460.00;;;;4845332;29;20054;-66
2024/03/01 02:15:25;;;;;;;18.15;10.27;;;;;5.10;97453.00;;;;4845601;29;20046;-66
2024/03/01 02:17:56;;;;;;;12.95;9.75;;;;;5.10;97458.00;;;;4845586;29;20102;-66
2024/03/01 02:20:25;;;;;;;15.18;10.43;;;;;5.10;97437.00;;;;4845935;29;20054;-66
2024/03/01 02:23:01;;;;;;;15.98;10.10;;;;;5.00;97424.00;;;;4845758;29;20042;-66
2024/03/01 02:25:27;;;;;;;15.52;10.18;;;;;4.90;97414.00;;;;4846247;29;20056;-66
2024/03/01 02:27:54;;;;;;;16.38;10.10;;;;;5.00;97413.00;;;;4845750;29;20095;-66
2024/03/01 02:30:21;;;;;;;17.42;11.40;;;;;5.00;97407.00;;;;4845585;29;20565;-66
2024/03/01 02:32:47;;;;;;;16.10;10.95;;;;;5.10;97404.00;;;;4845150;29;20418;-66
2024/03/01 02:35:14;;;;;;;16.50;11.32;;;;;5.30;97404.00;;;;4843791;29;20103;-66
2024/03/01 02:37:44;;;;;;;18.27;11.30;;;;;5.50;97410.00;;;;4859229;29;20072;-66
2024/03/01 02:40:11;;;;;;;14.52;10.40;;;;;5.70;97411.00;;;;4858480;29;20500;-66
2024/03/01 02:42:38;;;;;;;13.95;10.13;;;;;5.70;97405.00;;;;4844896;29;20046;-66
2024/03/01 02:45:05;;;;;;;17.88;11.27;;;;;5.60;97397.00;;;;4843947;29;20137;-66
2024/03/01 02:47:31;;;;;;;14.90;10.32;;;;;5.50;97400.00;;;;4845051;29;20050;-66
2024/03/01 02:49:58;;;;;;;16.15;10.75;;;;;5.30;97392.00;;;;4844660;29;20113;-66
2024/03/01 02:52:25;;;;;;;16.02;10.50;;;;;5.10;97391.00;;;;4844665;29;20106;-66
2024/03/01 02:54:51;;;;;;;15.98;10.20;;;;;5.10;97400.00;;;;4845096;29;20084;-66
2024/03/01 02:57:18;;;;;;;16.08;10.20;;;;;5.00;97401.00;;;;4844930;29;20488;-67
2024/03/01 02:59:45;;;;;;;14.02;9.25;;;;;4.90;97407.00;;;;4845031;29;20045;-66
2024/03/01 03:02:11;;;;;;;14.73;9.52;;;;;4.80;97396.00;;;;4844706;29;20060;-66
2024/03/01 03:04:38;;;;;;;15.05;9.43;;;;;4.70;97405.00;;;;4843302;29;20152;-66
2024/03/01 03:07:05;;;;;;;16.63;10.35;;;;;4.70;97401.00;;;;4844616;29;20053;-66
2024/03/01 03:09:41;;;;;;;18.02;10.93;;;;;4.60;97398.00;;;;4844935;29;20115;-66
2024/03/01 03:12:09;;;;;;;15.90;9.50;;;;;4.50;97395.00;;;;4844608;29;20109;-65
2024/03/01 03:14:36;;;;;;;14.77;9.57;;;;;4.60;97392.00;;;;4844520;29;20046;-66
2024/03/01 03:17:04;;;;;;;16.13;10.05;;;;;4.50;97379.00;;;;4843486;29;20054;-66
2024/03/01 03:19:31;;;;;;;16.65;10.38;;;;;4.50;97385.00;;;;4844499;29;20141;-67
2024/03/01 03:21:58;;;;;;;16.38;10.48;;;;;4.60;97377.00;;;;4858772;29;20142;-67
2024/03/01 03:24:25;;;;;;;19.77;11.15;;;;;4.60;97377.00;;;;4859108;29;20061;-67
2024/03/01 03:26:51;;;;;;;18.80;12.32;;;;;4.60;97376.00;;;;4843075;29;20053;-67
2024/03/01 03:29:20;;;;;;;14.98;10.80;;;;;4.60;97383.00;;;;4844380;29;20504;-65
2024/03/01 03:31:47;;;;;;;16.77;11.15;;;;;4.70;97387.00;;;;4844160;29;20064;-65
2024/03/01 03:34:13;;;;;;;19.73;11.35;;;;;4.90;97386.00;;;;4843021;29;20089;-65
2024/03/01 03:36:40;;;;;;;17.38;11.57;;;;;4.80;97392.00;;;;4844290;29;20054;-65
2024/03/01 03:39:06;;;;;;;17.73;11.85;;;;;4.80;97387.00;;;;4844332;29;20052;-66
2024/03/01 03:41:34;;;;;;;18.25;11.40;;;;;4.90;97387.00;;;;4844398;29;20472;-66
2024/03/01 03:44:01;;;;;;;18.70;11.45;;;;;4.90;97382.00;;;;4844445;29;20089;-66
2024/03/01 03:46:28;;;;;;;17.48;11.43;;;;;5.00;97391.00;;;;4843917;29;20582;-66
2024/03/01 03:48:55;;;;;;;17.98;10.98;;;;;5.10;97391.00;;;;4843971;29;20503;-65
2024/03/01 03:51:23;;;;;;;18.27;11.52;;;;;5.20;97398.00;;;;4843248;29;20118;-65
2024/03/01 03:53:50;;;;;;;19.13;11.27;;;;;5.20;97402.00;;;;4859578;29;20061;-65
2024/03/01 03:56:16;;;;;;;16.50;11.15;;;;;5.30;97412.00;;;;4860484;29;20121;-65
2024/03/01 03:58:43;;;;;;;17.52;11.23;;;;;5.30;97404.00;;;;4844581;29;20106;-66
2024/03/01 04:01:10;;;;;;;19.55;12.05;;;;;5.30;97399.00;;;;4844435;29;20081;-66
2024/03/01 04:03:36;;;;;;;16.35;10.30;;;;;5.40;97412.00;;;;4842581;29;20098;-66
2024/03/01 04:06:07;;;;;;;14.85;10.18;;;;;5.50;97398.00;;;;4844082;29;20419;-66
2024/03/01 04:08:37;;;;;;;16.58;10.77;;;;;5.60;97412.00;;;;4843610;29;20127;-67
2024/03/01 04:11:05;;;;;;;13.98;9.82;;;;;5.70;97419.00;;;;4843972;29;20132;-65
2024/03/01 04:13:33;;;;;;;14.82;10.27;;;;;5.70;97416.00;;;;4843412;29;20125;-66
2024/03/01 04:16:00;;;;;;;17.85;10.98;;;;;5.70;97411.00;;;;4857457;29;20053;-66
2024/03/01 04:18:27;;;;;;;17.25;11.20;;;;;5.80;97423.00;;;;4843222;29;20522;-66
2024/03/01 04:20:55;;;;;;;17.45;10.95;;;;;5.90;97437.00;;;;4857536;29;20073;-66
2024/03/01 04:23:26;;;;;;;15.15;10.88;;;;;5.90;97427.00;;;;4843736;29;20042;-66
2024/03/01 04:25:54;;;;;;;16.70;11.07;;;;;5.90;97434.00;;;;4857292;29;20152;-67
2024/03/01 04:28:27;;;;;;;17.42;11.02;;;;;5.80;97430.00;;;;4843455;29;20560;-65
2024/03/01 04:30:54;;;;;;;15.52;10.70;;;;;5.60;97427.00;;;;4843266;29;20054;-67
2024/03/01 04:33:21;;;;;;;17.70;11.23;;;;;5.50;97427.00;;;;4842970;29;20046;-67
2024/03/01 04:35:48;;;;;;;15.52;11.00;;;;;5.40;97430.00;;;;4843110;29;20540;-66
2024/03/01 04:38:14;;;;;;;17.75;10.60;;;;;5.50;97439.00;;;;4842041;29;20144;-66
2024/03/01 04:40:41;;;;;;;16.65;11.63;;;;;5.50;97440.00;;;;4857100;29;20423;-66
2024/03/01 04:43:08;;;;;;;17.40;12.18;;;;;5.60;97441.00;;;;4843243;29;20050;-66
2024/03/01 04:45:35;;;;;;;17.52;10.98;;;;;5.70;97440.00;;;;4842855;29;20077;-66
2024/03/01 04:48:02;;;;;;;18.17;10.95;;;;;5.80;97436.00;;;;4842959;29;20539;-66
2024/03/01 04:50:29;;;;;;;17.42;11.75;;;;;5.70;97439.00;;;;4841742;29;20058;-66
2024/03/01 04:52:56;;;;;;;16.23;11.18;;;;;5.90;97459.00;;;;4842664;29;20137;-67
2024/03/01 04:55:22;;;;;;;14.80;10.13;;;;;5.90;97440.00;;;;4842764;29;20050;-67
2024/03/01 04:57:49;;;;;;;19.70;11.45;;;;;6.00;97447.00;;;;4842175;29;20056;-65
2024/03/01 05:00:21;;;;;;;15.05;11.05;;;;;6.10;97453.00;;;;4843035;29;20082;-66
2024/03/01 05:02:48;;;;;;;16.10;10.95;;;;;6.30;97453.00;;;;4842741;29;20054;-66
2024/03/01 05:05:16;;;;;;;13.13;9.00;;;;;6.50;97449.00;;;;4842714;29;20101;-65
2024/03/01 05:07:42;;;;;;;15.77;10.00;;;;;6.70;97452.00;;;;4842605;29;20046;-65
2024/03/01 05:10:09;;;;;;;13.38;9.23;;;;;6.90;97457.00;;;;4841714;29;20038;-65
2024/03/01 05:12:41;;;;;;;13.98;9.23;;;;;7.00;97454.00;;;;4841715;29;20054;-65
2024/03/01 05:15:08;;;;;;;12.60;8.50;;;;;7.10;97453.00;;;;4843600;29;20064;-65
2024/03/01 05:17:39;;;;;;;13.85;9.30;;;;;7.30;97457.00;;;;4843420;29;20049;-65
2024/03/01 05:20:10;;;;;;;13.85;8.55;;;;;7.40;97456.00;;;;4843631;29;20058;-65
2024/03/01 05:22:38;;;;;;;13.32;9.25;;;;;7.40;97450.00;;;;4843132;29;20065;-65
2024/03/01 05:25:14;;;;;;;14.40;9.50;;;;;7.40;97442.00;;;;4842535;29;20065;-65
2024/03/01 05:27:45;;;;;;;13.95;9.45;;;;;7.50;97447.00;;;;4842702;29;20046;-65
2024/03/01 05:30:14;;;;;;;13.63;9.25;;;;;7.50;97455.00;;;;4841912;29;20077;-65
2024/03/01 05:32:46;;;;;;;16.73;9.80;;;;;7.60;97449.00;;;;4841524;29;20107;-65
2024/03/01 05:35:13;;;;;;;12.93;9.10;;;;;7.70;97444.00;;;;4842498;29;20526;-65
2024/03/01 05:37:41;;;;;;;12.70;9.27;;;;;7.80;97459.00;;;;4841372;29;20076;-65
2024/03/01 05:40:12;;;;;;;13.60;9.35;;;;;7.90;97448.00;;;;4842499;29;20058;-64
2024/03/01 05:42:39;;;;;;;14.02;8.50;;;;;7.90;97450.00;;;;4842529;29;20057;-64
2024/03/01 05:45:10;;;;;;;12.05;8.75;;;;;7.90;97448.00;;;;4842425;29;20141;-64
2024/03/01 05:47:44;;;;;;;13.27;9.00;;;;;7.90;97458.00;;;;4842426;29;20050;-64
2024/03/01 05:50:12;;;;;;;15.48;9.82;;;;;7.90;97451.00;;;;4842462;29;20095;-64
2024/03/01 05:52:42;;;;;;;14.98;9.23;;;;;8.00;97453.00;;;;4842205;29;20050;-64
2024/03/01 05:55:09;;;;;;;16.02;10.32;;;;;7.90;97459.00;;;;4841136;29;20049;-64
2024/03/01 05:57:36;;;;;;;13.70;9.40;;;;;8.00;97472.00;;;;4840981;29;20500;-65
2024/03/01 06:00:21;;;;;;;16.02;10.48;;;;;8.00;97458.00;;;;4840965;29;20130;-65
2024/03/01 06:02:48;;;;;;;13.07;8.90;;;;;8.00;97473.00;;;;4842392;29;20060;-65
2024/03/01 06:05:15;;;;;;;14.45;9.80;;;;;8.00;97473.00;;;;4842204;29;20053;-65
2024/03/01 06:07:43;;;;;;;16.52;9.25;;;;;8.00;97470.00;;;;4842327;29;20076;-65
2024/03/01 06:10:13;;;;;;;14.15;8.68;;;;;8.10;97471.00;;;;4841024;29;20091;-65
2024/03/01 06:12:39;;;;;;;12.00;8.68;;;;;8.10;97479.00;;;;4843577;29;20053;-65
2024/03/01 06:15:07;;;;;;;17.35;11.73;;;;;8.10;97477.00;;;;4859187;29;20057;-64
2024/03/01 06:17:34;;;;;;;13.50;9.43;;;;;8.20;97494.00;;;;4846392;29;20488;-65
2024/03/01 06:20:02;;;;;;;14.88;9.13;;;;;8.30;97487.00;;;;4845677;29;20058;-65
2024/03/01 06:22:29;;;;;;;14.35;9.68;;;;;8.30;97495.00;;;;4845462;29;20136;-65
2024/03/01 06:24:56;;;;;;;12.30;8.70;;;;;8.30;97485.00;;;;4844332;29;20106;-65
2024/03/01 06:27:23;;;;;;;13.85;8.90;;;;;8.40;97486.00;;;;4845478;29;20050;-65
2024/03/01 06:29:50;;;;;;;13.43;8.95;;;;;8.40;97490.00;;;;4844149;29;20050;-65
2024/03/01 06:32:16;;;;;;;15.15;9.18;;;;;8.50;97493.00;;;;4844471;29;20054;-65
2024/03/01 06:34:43;;;;;;;14.48;9.05;;;;;8.50;97491.00;;;;4845300;29;20046;-65
2024/03/01 06:37:09;;;;;;;13.93;8.32;;;;;8.50;97488.00;;;;4844126;29;20141;-65
2024/03/01 06:39:36;;;;;;;13.30;8.43;;;;;8.50;97485.00;;;;4844031;29;20447;-65
2024/03/01 06:42:03;;;;;;;11.73;8.55;;;;;8.50;97487.00;;;;4843845;29;20050;-65
2024/03/01 06:44:30;;;;;;;14.52;8.45;;;;;8.50;97499.00;;;;4843993;29;20058;-65
2024/03/01 06:46:56;;;;;;;16.70;9.20;;;;;8.50;97492.00;;;;4845187;29;20057;-65
2024/03/01 06:49:23;;;;;;;14.60;8.32;;;;;8.60;97495.00;;;;4845064;29;20042;-65
2024/03/01 06:51:51;;;;;;;16.33;8.73;;;;;8.60;97494.00;;;;4845156;29;20046;-65
2024/03/01 06:54:18;;;;;;;15.23;8.80;;;;;8.60;97494.00;;;;4844271;29;20072;-65
2024/03/01 06:56:46;;;;;;;14.00;8.52;;;;;8.60;97495.00;;;;4845203;29;20054;-65
2024/03/01 06:59:13;;;;;;;15.10;8.80;;;;;8.70;97496.00;;;;4844957;29;20048;-65
2024/03/01 07:01:39;;;;;;;17.20;8.10;;;;;8.70;97497.00;;;;4843796;29;20548;-65
2024/03/01 07:04:06;;;;;;;11.65;7.78;;;;;8.70;97496.00;;;;4843641;29;20122;-65
2024/03/01 07:06:33;;;;;;;15.07;7.35;;;;;8.70;97502.00;;;;4844655;29;20099;-65
2024/03/01 07:08:59;;;;;;;13.70;8.00;;;;;8.70;97509.00;;;;4844518;29;20042;-65
2024/03/01 07:11:27;;;;;;;14.40;7.85;;;;;8.70;97512.00;;;;4843351;29;20069;-65
2024/03/01 07:13:54;;;;;;;13.43;8.07;;;;;8.70;97503.00;;;;4844836;29;20049;-65
2024/03/01 07:16:21;;;;;;;12.25;8.32;;;;;8.80;97505.00;;;;4845519;29;20050;-65
2024/03/01 07:18:47;;;;;;;16.77;8.40;;;;;8.80;97503.00;;;;4843725;29;20060;-65
2024/03/01 07:21:14;;;;;;;12.48;7.95;;;;;8.90;97503.00;;;;4844346;29;20053;-65
2024/03/01 07:23:41;;;;;;;11.90;7.57;;;;;9.10;97503.00;;;;4843018;29;20144;-65
2024/03/01 07:26:07;;;;;;;11.88;7.38;;;;;9.20;97503.00;;;;4843423;29;20054;-65
2024/03/01 07:28:34;;;;;;;15.40;8.00;;;;;9.40;97512.00;;;;4843055;29;20141;-65
2024/03/01 07:31:02;;;;;;;11.95;7.22;;;;;9.50;97500.00;;;;4844411;29;20128;-65
2024/03/01 07:33:30;;;;;;;12.10;8.18;;;;;9.60;97515.00;;;;4858390;29;20069;-66
2024/03/01 07:35:57;;;;;;;10.85;7.78;;;;;9.60;97513.00;;;;4843237;29;20054;-65
2024/03/01 07:38:23;;;;;;;9.23;6.70;;;;;9.60;97517.00;;;;4844241;29;20046;-65
2024/03/01 07:40:50;;;;;;;10.57;7.32;;;;;9.70;97524.00;;;;4843915;29;20110;-65
2024/03/01 07:43:16;;;;;;;11.93;7.57;;;;;9.80;97523.00;;;;4844293;29;20053;-65
2024/03/01 07:45:43;;;;;;;11.20;7.55;;;;;10.00;97525.00;;;;4844843;29;20515;-66
2024/03/01 07:48:10;;;;;;;10.15;7.25;;;;;10.00;97526.00;;;;4844585;29;20049;-66
2024/03/01 07:50:38;;;;;;;10.23;7.35;;;;;10.00;97526.00;;;;4844168;29;20484;-66
2024/03/01 07:53:04;;;;;;;8.05;6.70;;;;;10.10;97530.00;;;;4843815;29;20102;-66
2024/03/01 07:55:31;;;;;;;10.63;7.07;;;;;10.10;97526.00;;;;4843764;29;20049;-67
2024/03/01 07:58:00;;;;;;;10.10;7.55;;;;;10.00;97531.00;;;;4843914;29;20050;-66
2024/03/01 08:00:27;;;;;;;11.15;6.72;;;;;10.10;97535.00;;;;4842951;29;20042;-66
2024/03/01 08:03:07;;;;;;;10.52;7.43;;;;;10.10;97539.00;;;;4843459;29;20527;-66
2024/03/01 08:05:38;;;;;;;10.85;7.10;;;;;10.10;97534.00;;;;4844081;29;20110;-67
2024/03/01 08:08:07;;;;;;;11.32;6.60;;;;;10.20;97533.00;;;;4842392;29;20073;-67
2024/03/01 08:10:45;;;;;;;8.13;6.80;;;;;10.30;97535.00;;;;4842432;29;20053;-67
2024/03/01 08:13:13;;;;;;;8.15;6.43;;;;;10.40;97527.00;;;;4843784;29;20519;-66
2024/03/01 08:15:40;;;;;;;7.93;5.90;;;;;10.60;97523.00;;;;4843899;29;20053;-67
2024/03/01 08:18:19;;;;;;;9.35;6.82;;;;;10.80;97509.00;;;;4843209;29;20526;-65
2024/03/01 08:20:55;;;;;;;10.25;6.72;;;;;10.80;97519.00;;;;4843180;29;20098;-64
2024/03/01 08:23:25;;;;;;;7.93;6.25;;;;;10.90;97528.00;;;;4843373;29;20048;-65
2024/03/01 08:25:52;;;;;;;7.90;6.35;;;;;10.90;97534.00;;;;4843130;29;20046;-64
2024/03/01 08:28:30;;;;;;;8.20;5.85;;;;;10.90;97533.00;;;;4843173;29;20049;-63
2024/03/01 08:31:03;;;;;;;8.50;6.00;;;;;10.80;97540.00;;;;4842353;29;20050;-64
2024/03/01 08:33:32;;;;;;;7.90;5.70;;;;;10.60;97543.00;;;;4844050;29;20053;-64
2024/03/01 08:35:59;;;;;;;8.52;6.32;;;;;10.50;97544.00;;;;4843787;29;20425;-64
2024/03/01 08:38:42;;;;;;;8.57;5.97;;;;;10.30;97550.00;;;;4843725;29;20042;-63
2024/03/01 08:41:11;;;;;;;7.03;5.25;;;;;10.20;97548.00;;;;4842331;29;20137;-63
2024/03/01 08:43:39;;;;;;;7.88;5.82;;;;;10.10;97553.00;;;;4843262;29;20053;-64
2024/03/01 08:46:35;;;;;;;8.38;6.25;;;;;10.20;97553.00;;;;4842152;29;20113;-65
2024/03/01 08:49:37;;;;;;;9.10;5.68;;;;;10.10;97544.00;;;;4839959;29;20404;-64
2024/03/01 08:52:27;;;;;;;8.20;5.65;;;;;10.00;97552.00;;;;4843389;29;20082;-64
2024/03/01 08:54:57;;;;;;;8.10;6.03;;;;;9.90;97553.00;;;;4842127;29;20469;-65
2024/03/01 08:57:26;;;;;;;8.40;5.85;;;;;9.90;97555.00;;;;4843017;29;20106;-65
2024/03/01 08:59:53;;;;;;;9.65;6.65;;;;;9.90;97554.00;;;;4843128;29;20037;-67
2024/03/01 09:02:45;;;;;;;8.07;6.03;;;;;10.00;97564.00;;;;4843312;29;20460;-66
2024/03/01 09:05:14;;;;;;;7.25;5.50;;;;;10.00;97561.00;;;;4842145;29;20049;-65
2024/03/01 09:07:43;;;;;;;7.82;6.15;;;;;10.10;97563.00;;;;4843194;29;20070;-66
2024/03/01 09:10:20;;;;;;;6.95;5.30;;;;;10.10;97560.00;;;;4843032;29;20057;-67
2024/03/01 09:12:46;;;;;;;7.07;5.13;;;;;10.10;97555.00;;;;4844148;29;20050;-66
2024/03/01 09:15:21;;;;;;;8.63;5.07;;;;;10.10;97562.00;;;;4841714;29;20512;-67
2024/03/01 09:17:48;;;;;;;6.68;5.10;;;;;10.10;97559.00;;;;4843097;29;20046;-66
2024/03/01 09:20:34;;;;;;;8.32;4.82;;;;;10.10;97561.00;;;;4842980;29;20048;-66
2024/03/01 09:23:04;;;;;;;6.45;4.43;;;;;10.00;97567.00;;;;4842693;29;20042;-66
2024/03/01 09:25:43;;;;;;;5.88;4.45;;;;;10.00;97574.00;;;;4842494;29;20049;-67
2024/03/01 09:28:11;;;;;;;9.23;6.18;;;;;9.90;97573.00;;;;4841425;29;20082;-67
2024/03/01 09:30:38;;;;;;;9.75;7.07;;;;;9.80;97575.00;;;;4842968;29;20549;-67
2024/03/01 09:33:19;;;;;;;7.75;6.00;;;;;9.70;97568.00;;;;4842641;29;20495;-67
2024/03/01 09:35:50;;;;;;;5.43;3.95;;;;;9.50;97571.00;;;;4841793;29;20050;-65
2024/03/01 09:38:19;;;;;;;5.45;4.30;;;;;9.40;97573.00;;;;4841296;29;20156;-65
2024/03/01 09:40:52;;;;;;;5.03;4.32;;;;;9.40;97577.00;;;;4842314;29;20102;-66
2024/03/01 09:43:49;;;;;;;5.65;3.40;;;;;9.20;97576.00;;;;4842347;29;20492;-65
2024/03/01 09:46:24;;;;;;;5.22;3.67;;;;;9.20;97577.00;;;;4841275;29;20066;-65
2024/03/01 09:49:03;;;;;;;3.45;3.05;;;;;9.20;97575.00;;;;4843939;29;20052;-65
2024/03/01 09:51:43;;;;;;;4.95;3.50;;;;;9.10;97573.00;;;;4846083;29;20046;-65
2024/03/01 09:54:27;;;;;;;4.95;3.63;;;;;9.10;97571.00;;;;4845811;29;20050;-66
2024/03/01 09:57:00;;;;;;;3.72;3.10;;;;;9.30;97576.00;;;;4845872;29;20041;-66
2024/03/01 09:59:51;;;;;;;5.20;2.78;;;;;9.50;97565.00;;;;4844548;29;20083;-65
2024/03/01 10:02:32;;;;;;;4.40;2.80;;;;;9.70;97574.00;;;;4845802;29;20053;-65
2024/03/01 10:05:04;;;;;;;3.97;3.22;;;;;9.90;97572.00;;;;4854744;29;20500;-65
2024/03/01 10:07:46;;;;;;;3.90;2.92;;;;;10.00;97577.00;;;;4860629;29;20174;-65
2024/03/01 10:10:38;;;;;;;4.15;2.58;;;;;10.00;97578.00;;;;4859991;29;20050;-65
2024/03/01 10:13:35;;;;;;;4.65;2.30;;;;;9.80;97584.00;;;;4859966;29;20057;-66
2024/03/01 10:16:24;;;;;;;4.10;2.58;;;;;9.70;97588.00;;;;4859651;29;20144;-66
2024/03/01 10:19:19;;;;;;;2.58;2.08;;;;;9.60;97587.00;;;;4845546;29;20053;-66
2024/03/01 10:22:04;;;;;;;2.63;1.90;;;;;9.60;97586.00;;;;4845550;29;20216;-66
2024/03/01 10:24:50;;;;;;;3.58;2.05;;;;;9.50;97590.00;;;;4860311;29;20050;-66
2024/03/01 10:27:22;;;;;;;2.35;2.10;;;;;9.50;97592.00;;;;4859614;29;20085;-67
2024/03/01 10:30:05;;;;;;;3.97;2.92;;;;;9.60;97586.00;;;;4845458;29;20054;-66
2024/03/01 10:33:03;;;;;;;3.95;2.67;;;;;9.70;97599.00;;;;4859501;29;20165;-65
2024/03/01 10:36:07;;;;;;;4.32;2.42;;;;;9.90;97581.00;;;;4845758;29;20053;-66
2024/03/01 10:38:52;;;;;;;3.40;2.47;;;;;10.20;97578.00;;;;4845500;29;20054;-66
2024/03/01 10:41:32;;;;;;;3.55;2.28;;;;;10.50;97579.00;;;;4859290;29;20578;-66
2024/03/01 10:44:37;;;;;;;4.82;2.72;;;;;10.80;97579.00;;;;4843977;29;20508;-66
2024/03/01 10:47:25;;;;;;;2.45;1.80;;;;;11.00;97578.00;;;;4844485;29;20058;-66
2024/03/01 10:50:19;;;;;;;2.55;1.80;;;;;10.90;97586.00;;;;4846963;29;20046;-65
2024/03/01 10:53:09;;;;;;;2.00;1.80;;;;;10.70;97590.00;;;;4846861;29;20053;-65
2024/03/01 10:56:00;;;;;;;2.63;2.00;;;;;10.60;97574.00;;;;4845661;29;20054;-66
2024/03/01 10:58:47;;;;;;;2.72;2.30;;;;;10.30;97585.00;;;;4843817;29;20154;-66
2024/03/01 11:01:42;;;;;;;3.00;2.70;;;;;10.20;97594.00;;;;4844162;29;20106;-65
2024/03/01 11:04:24;;;;;;;3.03;2.47;;;;;10.10;97590.00;;;;4844573;29;20057;-66
2024/03/01 11:07:00;;;;;;;3.83;2.60;;;;;10.00;97583.00;;;;4845703;29;20065;-67
2024/03/01 11:09:39;;;;;;;4.28;2.80;;;;;10.00;97579.00;;;;4843452;29;20099;-66
2024/03/01 11:12:14;;;;;;;4.40;2.80;;;;;10.10;97579.00;;;;4845442;29;20058;-66
2024/03/01 11:14:50;;;;;;;3.05;2.10;;;;;10.10;97585.00;;;;4844150;29;20049;-65
2024/03/01 11:17:24;;;;;;;3.08;2.70;;;;;10.00;97568.00;;;;4845185;29;20053;-67
2024/03/01 11:19:55;;;;;;;2.30;2.10;;;;;10.20;97564.00;;;;4844218;29;20069;-66
2024/03/01 11:22:26;;;;;;;8.98;2.72;;;;;10.30;97567.00;;;;4844615;29;20081;-66
2024/03/01 11:25:11;;;;;;;2.88;2.55;;;;;10.30;97560.00;;;;4843375;29;20560;-67
2024/03/01 11:27:47;;;;;;;4.25;2.40;;;;;10.30;97573.00;;;;4843668;29;20133;-67
2024/03/01 11:30:19;;;;;;;3.08;2.08;;;;;10.30;97571.00;;;;4843915;29;20133;-66
2024/03/01 11:32:50;;;;;;;2.97;2.45;;;;;10.40;97574.00;;;;4844384;29;20137;-67
2024/03/01 11:35:28;;;;;;;2.55;2.30;;;;;10.50;97575.00;;;;4844116;29;20061;-67
2024/03/01 11:38:19;;;;;;;2.80;2.60;;;;;10.50;97575.00;;;;4844249;29;20495;-68
2024/03/01 11:41:10;;;;;;;3.35;2.35;;;;;10.50;97578.00;;;;4844286;29;20056;-67
2024/03/01 11:43:52;;;;;;;2.30;2.10;;;;;10.60;97584.00;;;;4844428;29;20046;-67
2024/03/01 11:46:48;;;;;;;1.85;1.75;;;;;10.70;97583.00;;;;4844503;29;20046;-69
2024/03/01 11:49:27;;;;;;;2.50;2.15;;;;;10.80;97579.00;;;;4842163;29;20495;-66
2024/03/01 11:52:04;;;;;;;4.35;3.50;;;;;10.80;97580.00;;;;4843136;29;20045;-67
2024/03/01 11:54:50;;;;;;;2.58;1.80;;;;;10.70;97586.00;;;;4843428;29;20054;-67
2024/03/01 11:57:46;;;;;;;2.88;2.00;;;;;10.90;97583.00;;;;4844265;29;20058;-67
2024/03/01 12:00:39;;;;;;;2.30;2.10;;;;;11.00;97580.00;;;;4858102;29;20137;-65
2024/03/01 12:03:20;;;;;;;3.83;2.40;;;;;10.90;97584.00;;;;4844487;29;20046;-67
2024/03/01 12:06:07;;;;;;;2.80;2.35;;;;;10.80;97580.00;;;;4826390;29;20050;-68
2024/03/01 12:09:08;;;;;;;2.08;1.80;;;;;10.70;97586.00;;;;4825678;29;20050;-69
2024/03/01 12:11:53;;;;;;;2.10;1.98;;;;;10.80;97578.00;;;;4808738;29;20060;-69
2024/03/01 12:14:39;;;;;;;2.30;2.10;;;;;10.80;97572.00;;;;4825382;29;20046;-68
2024/03/01 12:17:39;;;;;;;2.08;1.88;;;;;10.60;97568.00;;;;4824371;29;20488;-68
2024/03/01 12:20:09;;;;;;;2.63;1.98;;;;;10.70;97562.00;;;;4824072;29;20105;-68
2024/03/01 12:23:03;;;;;;;2.13;1.85;;;;;10.80;97551.00;;;;4825002;29;20052;-69
2024/03/01 12:25:30;;;;;;;3.58;1.88;;;;;11.00;97559.00;;;;4826354;29;20046;-68
2024/03/01 12:28:11;;;;;;;1.80;1.70;;;;;11.10;97550.00;;;;4809170;29;20054;-68
2024/03/01 12:30:38;;;;;;;4.07;2.00;;;;;11.10;97548.00;;;;4839030;29;20054;-68
2024/03/01 12:33:17;;;;;;;2.95;2.05;;;;;11.20;97543.00;;;;4824122;29;20492;-67
2024/03/01 12:35:56;;;;;;;2.22;2.00;;;;;11.30;97549.00;;;;4839000;29;20050;-67
2024/03/01 12:38:45;;;;;;;2.20;2.00;;;;;11.30;97548.00;;;;4825407;29;20050;-68